Flight Track Log - Related Links

Times and Time Zones

All times are in EDT time to prevent confusion due to time zone crossing. See the TAM3900 flight status page for this flight to view local times or setup timezone preferences in your user account.

Time Position Orientation Groundspeed Altitude Reporting Facility
EDT Latitude Longitude Course Direction KTS MPH feet Rate Location/Type
Mon 05:36:00 AM -23.4063 -45.5355 78° East  Level Estimated
Mon 05:37:00 AM -23.3922 -45.4657 78° East  Level Estimated
Mon 05:38:00 AM -23.3782 -45.3958 78° East  Level Estimated
Mon 05:39:00 AM -23.3641 -45.3260 78° East  Level Estimated
Mon 05:40:00 AM -23.3499 -45.2562 78° East  Level Estimated
Mon 05:41:00 AM -23.3358 -45.1864 78° East  Level Estimated
Mon 05:42:00 AM -23.3216 -45.1166 78° East  Level Estimated
Mon 05:43:00 AM -23.3073 -45.0468 77° East  Level Estimated
Mon 05:44:00 AM -23.2931 -44.9771 77° East  Level Estimated
Mon 05:45:00 AM -23.2788 -44.9073 77° East  Level Estimated
Mon 05:46:00 AM -23.2645 -44.8376 77° East  Level Estimated
Mon 05:47:00 AM -23.2501 -44.7679 77° East  Level Estimated
Mon 05:48:00 AM -23.2357 -44.6982 77° East  Level Estimated
Mon 05:49:00 AM -23.2213 -44.6285 77° East  Level Estimated
Mon 05:50:00 AM -23.2069 -44.5588 77° East  Level Estimated
Mon 05:51:00 AM -23.1924 -44.4892 77° East  Level Estimated
Mon 05:52:00 AM -23.1779 -44.4195 77° East  Level Estimated
Mon 05:53:00 AM -23.1634 -44.3499 77° East  Level Estimated
Mon 05:54:00 AM -23.1488 -44.2803 77° East  Level Estimated
Mon 05:55:00 AM -23.1342 -44.2107 77° East  Level Estimated
Mon 05:56:00 AM -23.1196 -44.1411 77° East  Level Estimated
Mon 05:57:00 AM -23.1049 -44.0716 77° East  Level Estimated
Mon 05:58:00 AM -23.0903 -44.0020 77° East  Level Estimated
Mon 05:59:00 AM -23.0755 -43.9325 77° East  Level Estimated
Mon 06:00:00 AM -23.0608 -43.8630 77° East  Level Estimated
Mon 06:01:00 AM -23.0460 -43.7935 77° East  Level Estimated
Mon 06:02:00 AM -23.0312 -43.7240 77° East  Level Estimated
Mon 06:03:00 AM -23.0163 -43.6545 77° East  Level Estimated
Mon 06:04:00 AM -23.0015 -43.5850 77° East  Level Estimated
Mon 06:05:00 AM -22.9866 -43.5156 77° East  Level Estimated
Mon 06:06:00 AM -22.9716 -43.4462 77° East  Level Estimated
Mon 06:07:00 AM -22.9567 -43.3768 77° East  Level Estimated

Login

Don't have an account? Register now (free) for customized features, flight alerts, and more!